Time;durP1;ratioP1;P1;durP2;ratioP2;P2;SDS_P1;SDS_P2;PMS_P1;PMS_P2;Temp;Humidity;BMP_temperature;BMP_pressure;BME280_temperature;BME280_humidity;BME280_pressure;Samples;Min_cycle;Max_cycle;Signal;HPM_P1;HPM_P2
2021/06/01 00:02:00;;;;;;;4.00;2.72;;;;;;;-145.50;100.00;65435.88;4988007;28;20085;-72
2021/06/01 00:04:26;;;;;;;3.90;1.98;;;;;;;-145.50;100.00;65435.88;4972295;28;20109;-73
2021/06/01 00:06:53;;;;;;;6.43;2.58;;;;;;;-145.50;100.00;65435.88;4961291;28;20054;-72
2021/06/01 00:09:21;;;;;;;7.53;2.33;;;;;;;-145.50;100.00;65435.88;4967885;28;20090;-72
2021/06/01 00:11:48;;;;;;;5.50;2.30;;;;;;;-145.50;100.00;65435.88;4974211;28;20702;-72
2021/06/01 00:14:16;;;;;;;6.35;2.80;;;;;;;-145.50;100.00;65435.88;4976682;28;20471;-72
2021/06/01 00:16:43;;;;;;;4.88;2.60;;;;;;;-145.50;100.00;65435.88;4965314;28;20161;-72
2021/06/01 00:19:10;;;;;;;4.38;2.53;;;;;;;-145.50;100.00;65435.88;4958148;28;20505;-72
2021/06/01 00:21:39;;;;;;;5.93;2.42;;;;;;;-145.50;100.00;65435.88;4968596;28;20112;-72
2021/06/01 00:24:06;;;;;;;9.13;2.35;;;;;;;-145.50;100.00;65435.88;4971271;28;20283;-72
2021/06/01 00:26:34;;;;;;;5.97;2.50;;;;;;;-145.50;100.00;65435.88;4948944;28;20058;-73
2021/06/01 00:29:01;;;;;;;3.55;2.40;;;;;;;-145.50;100.00;65435.88;4975045;28;20187;-73
2021/06/01 00:31:27;;;;;;;6.65;2.40;;;;;;;-145.50;100.00;65435.88;4951992;28;20159;-73
2021/06/01 00:33:54;;;;;;;5.90;2.38;;;;;;;-145.50;100.00;65435.88;4975663;28;20053;-73
2021/06/01 00:36:20;;;;;;;7.13;2.65;;;;;;;-145.50;100.00;65435.88;4974103;28;20144;-72
2021/06/01 00:38:47;;;;;;;6.72;2.53;;;;;;;-145.50;100.00;65435.88;4949634;28;20539;-73
2021/06/01 00:41:13;;;;;;;4.20;2.25;;;;;;;-145.50;100.00;65435.88;4976640;28;20145;-72
2021/06/01 00:43:40;;;;;;;5.05;2.33;;;;;;;-145.50;100.00;65435.88;4975041;28;20082;-72
2021/06/01 00:46:07;;;;;;;6.40;2.50;;;;;;;-145.50;100.00;65435.88;4973299;28;20086;-72
2021/06/01 00:48:34;;;;;;;4.25;2.53;;;;;;;-145.50;100.00;65435.88;4973263;28;20703;-73
2021/06/01 00:51:00;;;;;;;5.93;2.63;;;;;;;-145.50;100.00;65435.88;4970359;28;20086;-73
2021/06/01 00:53:27;;;;;;;3.95;2.40;;;;;;;-145.50;100.00;65435.88;4972115;28;20145;-72
2021/06/01 00:55:54;;;;;;;4.72;2.70;;;;;;;-145.50;100.00;65435.88;4953249;28;20134;-73
2021/06/01 00:58:21;;;;;;;5.30;3.13;;;;;;;-145.50;100.00;65435.88;4959365;28;20082;-72
2021/06/01 01:01:12;;;;;;;5.63;3.10;;;;;;;-145.50;100.00;65435.88;4967960;28;20399;-72
2021/06/01 01:03:39;;;;;;;7.32;2.80;;;;;;;-145.50;100.00;65435.88;4967390;28;20137;-73
2021/06/01 01:06:14;;;;;;;8.07;3.42;;;;;;;-145.50;100.00;65435.88;4959028;28;20070;-73
2021/06/01 01:08:54;;;;;;;6.85;3.25;;;;;;;-145.50;100.00;65435.88;4973483;28;20077;-72
2021/06/01 01:11:40;;;;;;;5.97;2.78;;;;;;;-145.50;100.00;65435.88;4968592;28;20527;-72
2021/06/01 01:14:19;;;;;;;4.75;2.65;;;;;;;-145.50;100.00;65435.88;4957501;28;20050;-72
2021/06/01 01:17:20;;;;;;;4.57;2.80;;;;;;;-145.50;100.00;65435.88;4963679;28;20387;-72
2021/06/01 01:19:53;;;;;;;6.35;3.28;;;;;;;-145.50;100.00;65435.88;4938353;28;20142;-72
2021/06/01 01:22:20;;;;;;;7.93;3.70;;;;;;;-145.50;100.00;65435.88;4971783;28;20081;-72
2021/06/01 01:24:57;;;;;;;6.68;3.53;;;;;;;-145.50;100.00;65435.88;4960246;28;20145;-73
2021/06/01 01:28:02;;;;;;;5.90;3.10;;;;;;;-145.50;100.00;65435.88;4967457;28;20055;-72
2021/06/01 01:30:40;;;;;;;8.05;3.92;;;;;;;-145.50;100.00;65435.88;4950842;28;20423;-72
2021/06/01 01:33:26;;;;;;;7.45;3.83;;;;;;;-145.50;100.00;65435.88;4965520;28;20050;-73
2021/06/01 01:36:00;;;;;;;8.02;3.80;;;;;;;-145.50;100.00;65435.88;4974871;28;20089;-73
2021/06/01 01:38:28;;;;;;;7.50;4.47;;;;;;;-145.50;100.00;65435.88;4966617;28;20172;-72
2021/06/01 01:41:00;;;;;;;8.30;3.90;;;;;;;-145.50;100.00;65435.88;4967691;28;20593;-72
2021/06/01 01:43:31;;;;;;;8.98;3.90;;;;;;;-145.50;100.00;65435.88;4956769;28;20077;-72
2021/06/01 01:46:07;;;;;;;8.73;4.07;;;;;;;-145.50;100.00;65435.88;4963705;28;20550;-72
2021/06/01 01:51:22;;;;;;;8.25;4.38;;;;;;;-145.50;100.00;65435.88;4956982;28;20154;-73
2021/06/01 01:53:54;;;;;;;7.78;4.38;;;;;;;-145.50;100.00;65435.88;4971085;28;20601;-72
2021/06/01 01:56:24;;;;;;;9.40;4.97;;;;;;;-145.50;100.00;65435.88;4946204;28;20813;-72
2021/06/01 01:58:52;;;;;;;9.32;4.90;;;;;;;-145.50;100.00;65435.88;4977260;28;20990;-72
2021/06/01 02:01:20;;;;;;;8.73;4.80;;;;;;;-145.50;100.00;65435.88;4967955;28;20100;-72
2021/06/01 02:03:47;;;;;;;11.52;5.53;;;;;;;-145.50;100.00;65435.88;4977646;28;20190;-73
2021/06/01 02:06:14;;;;;;;10.05;5.82;;;;;;;-145.50;100.00;65435.88;4956062;28;20108;-72
2021/06/01 02:08:41;;;;;;;12.43;6.32;;;;;;;-145.50;100.00;65435.88;4975817;28;20478;-72
2021/06/01 02:11:08;;;;;;;11.60;5.87;;;;;;;-145.50;100.00;65435.88;4977649;28;20053;-72
2021/06/01 02:14:03;;;;;;;12.18;6.32;;;;;;;-145.50;100.00;65435.88;4970590;28;20767;-72
2021/06/01 02:16:33;;;;;;;10.70;6.00;;;;;;;-145.50;100.00;65435.88;4956352;28;20046;-73
2021/06/01 02:19:00;;;;;;;12.77;6.95;;;;;;;-145.50;100.00;65435.88;4952890;28;20621;-73
2021/06/01 02:24:33;;;;;;;13.07;6.85;;;;;;;-145.50;100.00;65435.88;4969272;28;20059;-72
2021/06/01 02:27:23;;;;;;;13.85;6.25;;;;;;;-145.50;100.00;65435.88;4977402;28;20585;-73
2021/06/01 02:30:02;;;;;;;11.65;5.57;;;;;;;-145.50;100.00;65435.88;4963961;28;20074;-72
2021/06/01 02:32:34;;;;;;;;;;;;;;;-145.50;100.00;65435.88;4969951;28;20372;-72
2021/06/01 02:35:22;;;;;;;12.75;4.65;;;;;;;-145.50;100.00;65435.88;4967787;28;19933;-73
2021/06/01 02:37:51;;;;;;;10.82;4.88;;;;;;;-145.50;100.00;65435.88;4974947;28;20833;-73
2021/06/01 02:40:22;;;;;;;9.65;4.60;;;;;;;-145.50;100.00;65435.88;4968610;28;20573;-73
2021/06/01 02:42:49;;;;;;;7.22;4.07;;;;;;;-145.50;100.00;65435.88;4971973;28;20132;-73
2021/06/01 02:45:22;;;;;;;6.68;3.85;;;;;;;-145.50;100.00;65435.88;4945472;28;20927;-73
2021/06/01 02:47:50;;;;;;;6.78;3.80;;;;;;;-145.50;100.00;65435.88;4976728;28;20112;-72
2021/06/01 02:50:18;;;;;;;6.57;3.63;;;;;;;-145.50;100.00;65435.88;4960281;28;20133;-72
2021/06/01 02:52:45;;;;;;;5.72;4.00;;;;;;;-145.50;100.00;65435.88;4957214;28;20046;-72
2021/06/01 02:55:16;;;;;;;6.43;4.00;;;;;;;-145.50;100.00;65435.88;4976694;28;20138;-72
2021/06/01 02:57:45;;;;;;;6.60;4.00;;;;;;;-145.50;100.00;65435.88;4959392;28;20129;-73
2021/06/01 03:00:15;;;;;;;8.23;4.43;;;;;;;-145.50;100.00;65435.88;4967648;28;20138;-72
2021/06/01 03:02:42;;;;;;;10.00;3.88;;;;;;;-145.50;100.00;65435.88;4967600;28;20137;-72
2021/06/01 03:05:09;;;;;;;9.48;3.72;;;;;;;-145.50;100.00;65435.88;4976195;28;20046;-72
2021/06/01 03:07:40;;;;;;;7.78;4.05;;;;;;;-145.50;100.00;65435.88;4953874;28;20077;-72
2021/06/01 03:10:12;;;;;;;8.25;4.03;;;;;;;-145.50;100.00;65435.88;4974918;28;20116;-72
2021/06/01 03:12:48;;;;;;;6.25;3.55;;;;;;;-145.50;100.00;65435.88;4965453;28;20145;-73
2021/06/01 03:15:16;;;;;;;6.82;4.05;;;;;;;-145.50;100.00;65435.88;4968794;28;20486;-72
2021/06/01 03:17:42;;;;;;;7.38;4.15;;;;;;;-145.50;100.00;65435.88;4959597;28;20573;-73
2021/06/01 03:20:09;;;;;;;5.53;3.50;;;;;;;-145.50;100.00;65435.88;4954862;28;20572;-72
2021/06/01 03:22:36;;;;;;;7.78;4.60;;;;;;;-145.50;100.00;65435.88;4978202;28;20570;-72
2021/06/01 03:25:04;;;;;;;6.97;3.70;;;;;;;-145.50;100.00;65435.88;4963999;28;20062;-72
2021/06/01 03:27:31;;;;;;;5.88;3.47;;;;;;;-145.50;100.00;65435.88;4970405;28;20079;-73
2021/06/01 03:29:58;;;;;;;8.95;4.10;;;;;;;-145.50;100.00;65435.88;4964796;28;20142;-72
2021/06/01 03:32:25;;;;;;;8.45;3.75;;;;;;;-145.50;100.00;65435.88;4972334;28;20140;-73
2021/06/01 03:34:51;;;;;;;5.57;3.78;;;;;;;-145.50;100.00;65435.88;4968325;28;20078;-73
2021/06/01 03:37:18;;;;;;;8.35;4.25;;;;;;;-145.50;100.00;65435.88;4974722;28;20137;-73
2021/06/01 03:39:44;;;;;;;5.65;3.92;;;;;;;-145.50;100.00;65435.88;4970571;28;20506;-72
2021/06/01 03:42:12;;;;;;;6.45;4.03;;;;;;;-145.50;100.00;65435.88;4964925;28;20630;-73
2021/06/01 03:44:40;;;;;;;9.60;3.97;;;;;;;-145.50;100.00;65435.88;4960605;28;20211;-73
2021/06/01 03:47:07;;;;;;;8.35;4.30;;;;;;;-145.50;100.00;65435.88;4968685;28;20135;-73
2021/06/01 03:49:34;;;;;;;8.23;4.05;;;;;;;-145.50;100.00;65435.88;4973684;28;20074;-73
2021/06/01 03:52:06;;;;;;;8.37;3.90;;;;;;;-145.50;100.00;65435.88;4958889;28;20141;-73
2021/06/01 03:54:37;;;;;;;6.80;4.25;;;;;;;-145.50;100.00;65435.88;4970258;28;20220;-72
2021/06/01 03:57:10;;;;;;;9.73;4.30;;;;;;;-145.50;100.00;65435.88;4974893;28;20089;-72
2021/06/01 03:59:37;;;;;;;8.48;4.18;;;;;;;-145.50;100.00;65435.88;4971800;28;20137;-72
2021/06/01 04:02:04;;;;;;;8.77;4.22;;;;;;;-145.50;100.00;65435.88;4973422;28;20093;-72
2021/06/01 04:04:30;;;;;;;8.43;4.45;;;;;;;-145.50;100.00;65435.88;4951947;28;20086;-72
2021/06/01 04:06:57;;;;;;;7.18;4.28;;;;;;;-145.50;100.00;65435.88;4971514;28;20136;-72
2021/06/01 04:09:24;;;;;;;7.50;4.55;;;;;;;-145.50;100.00;65435.88;4948283;28;20133;-72
2021/06/01 04:11:50;;;;;;;7.25;4.22;;;;;;;-145.50;100.00;65435.88;4972081;28;20061;-72
2021/06/01 04:14:19;;;;;;;8.45;4.00;;;;;;;-145.50;100.00;65435.88;4967165;28;20153;-73
2021/06/01 04:16:46;;;;;;;10.73;4.47;;;;;;;-145.50;100.00;65435.88;4974760;28;20505;-72
2021/06/01 04:19:16;;;;;;;12.10;5.13;;;;;;;-145.50;100.00;65435.88;4971881;28;20124;-73
2021/06/01 04:21:43;;;;;;;8.68;4.93;;;;;;;-145.50;100.00;65435.88;4967454;28;20089;-72
2021/06/01 04:24:12;;;;;;;7.65;4.93;;;;;;;-145.50;100.00;65435.88;4974715;28;20050;-72
2021/06/01 04:26:39;;;;;;;10.98;4.70;;;;;;;-145.50;100.00;65435.88;4964718;28;20483;-73
2021/06/01 04:29:06;;;;;;;8.98;4.60;;;;;;;-145.50;100.00;65435.88;4973891;28;20050;-72
2021/06/01 04:31:32;;;;;;;9.25;4.40;;;;;;;-145.50;100.00;65435.88;4969795;28;20086;-73
2021/06/01 04:33:59;;;;;;;6.97;4.30;;;;;;;-145.50;100.00;65435.88;4968098;28;20077;-73
2021/06/01 04:36:25;;;;;;;9.45;4.28;;;;;;;-145.50;100.00;65435.88;4949535;28;20085;-73
2021/06/01 04:38:53;;;;;;;10.50;4.30;;;;;;;-145.50;100.00;65435.88;4969814;28;20054;-72
2021/06/01 04:41:19;;;;;;;7.82;4.47;;;;;;;-145.50;100.00;65435.88;4960402;28;20200;-72
2021/06/01 04:43:46;;;;;;;10.48;4.50;;;;;;;-145.50;100.00;65435.88;4967984;28;20090;-73
2021/06/01 04:46:13;;;;;;;10.65;4.65;;;;;;;-145.50;100.00;65435.88;4970584;28;20128;-73
2021/06/01 04:48:41;;;;;;;12.63;4.65;;;;;;;-145.50;100.00;65435.88;4962141;28;20054;-73
2021/06/01 04:51:16;;;;;;;9.60;4.47;;;;;;;-145.50;100.00;65435.88;4973278;28;20102;-72
2021/06/01 04:53:48;;;;;;;8.45;4.78;;;;;;;-145.50;100.00;65435.88;4967450;28;20050;-73
2021/06/01 04:56:15;;;;;;;11.63;5.10;;;;;;;-145.50;100.00;65435.88;4976722;28;20197;-73
2021/06/01 04:58:42;;;;;;;8.45;4.97;;;;;;;-145.50;100.00;65435.88;4965820;28;20146;-72
2021/06/01 05:01:08;;;;;;;9.77;4.72;;;;;;;-145.50;100.00;65435.88;4968204;28;20892;-72
2021/06/01 05:03:36;;;;;;;10.23;4.95;;;;;;;-145.50;100.00;65435.88;4954026;28;20050;-73
2021/06/01 05:06:03;;;;;;;8.13;5.10;;;;;;;-145.50;100.00;65435.88;4969017;28;20090;-73
2021/06/01 05:08:29;;;;;;;8.85;4.78;;;;;;;-145.50;100.00;65435.88;4972696;28;20066;-73
2021/06/01 05:10:56;;;;;;;8.43;5.13;;;;;;;-145.50;100.00;65435.88;4964532;28;20165;-73
2021/06/01 05:13:22;;;;;;;8.77;5.03;;;;;;;-145.50;100.00;65435.88;4971966;28;20085;-73
2021/06/01 05:15:49;;;;;;;10.00;5.65;;;;;;;-145.50;100.00;65435.88;4960648;28;20046;-73
2021/06/01 05:18:16;;;;;;;14.65;5.90;;;;;;;-145.50;100.00;65435.88;4974181;28;20546;-72
2021/06/01 05:21:02;;;;;;;12.43;6.07;;;;;;;-145.50;100.00;65435.88;4968288;28;20050;-73
2021/06/01 05:23:28;;;;;;;9.07;5.35;;;;;;;-145.50;100.00;65435.88;4971657;28;20089;-73
2021/06/01 05:25:55;;;;;;;10.75;5.10;;;;;;;-145.50;100.00;65435.88;4969779;28;20214;-72
2021/06/01 05:28:22;;;;;;;11.23;5.53;;;;;;;-145.50;100.00;65435.88;4960315;28;20122;-73
2021/06/01 05:31:12;;;;;;;14.57;5.75;;;;;;;-145.50;100.00;65435.88;4966928;28;20446;-73
2021/06/01 05:33:39;;;;;;;11.13;5.05;;;;;;;-145.50;100.00;65435.88;4965765;28;20497;-72
2021/06/01 05:36:06;;;;;;;11.18;4.90;;;;;;;-145.50;100.00;65435.88;4957944;28;20082;-72
2021/06/01 05:38:33;;;;;;;10.50;5.53;;;;;;;-145.50;100.00;65435.88;4967493;28;20086;-72
2021/06/01 05:41:00;;;;;;;10.07;6.32;;;;;;;-145.50;100.00;65435.88;4964630;28;21091;-72
2021/06/01 05:43:29;;;;;;;10.63;5.72;;;;;;;-145.50;100.00;65435.88;4960868;28;20090;-73
2021/06/01 05:45:56;;;;;;;10.13;5.25;;;;;;;-145.50;100.00;65435.88;4958243;28;20050;-73
2021/06/01 05:48:22;;;;;;;9.00;5.05;;;;;;;-145.50;100.00;65435.88;4955516;28;20104;-73
2021/06/01 05:50:49;;;;;;;8.52;5.25;;;;;;;-145.50;100.00;65435.88;4968280;28;20561;-73
2021/06/01 05:53:17;;;;;;;7.50;4.70;;;;;;;-145.50;100.00;65435.88;4969042;28;20138;-73
2021/06/01 05:55:45;;;;;;;8.52;4.50;;;;;;;-145.50;100.00;65435.88;4960353;28;20048;-73
2021/06/01 05:58:12;;;;;;;8.98;5.22;;;;;;;-145.50;100.00;65435.88;4956406;28;20506;-73
2021/06/01 06:00:39;;;;;;;8.38;4.68;;;;;;;-145.50;100.00;65435.88;4966444;28;20569;-73
2021/06/01 06:03:05;;;;;;;11.07;4.85;;;;;;;-145.50;100.00;65435.88;4975112;28;20058;-72
2021/06/01 06:05:32;;;;;;;10.57;4.53;;;;;;;-145.50;100.00;65435.88;4973448;28;20575;-73
2021/06/01 06:08:10;;;;;;;7.22;4.82;;;;;;;-145.50;100.00;65435.88;4972349;28;20142;-73
2021/06/01 06:10:37;;;;;;;8.93;5.15;;;;;;;-145.50;100.00;65435.88;4963455;28;20090;-73
2021/06/01 06:13:05;;;;;;;11.48;5.68;;;;;;;-145.50;100.00;65435.88;4972909;28;20509;-73
2021/06/01 06:15:31;;;;;;;13.32;6.10;;;;;;;-145.50;100.00;65435.88;4970361;28;20126;-73
2021/06/01 06:18:04;;;;;;;11.75;5.50;;;;;;;-145.50;100.00;65435.88;4964154;28;20115;-73
2021/06/01 06:20:32;;;;;;;10.63;5.18;;;;;;;-145.50;100.00;65435.88;4972572;28;20641;-73
2021/06/01 06:23:00;;;;;;;10.95;5.60;;;;;;;-145.50;100.00;65435.88;4956128;28;20500;-73
2021/06/01 06:25:26;;;;;;;9.45;4.97;;;;;;;-145.50;100.00;65435.88;4971638;28;20074;-73
2021/06/01 06:27:54;;;;;;;10.93;5.05;;;;;;;-145.50;100.00;65435.88;4963461;28;20077;-73
2021/06/01 06:30:23;;;;;;;16.75;6.07;;;;;;;-145.50;100.00;65435.88;4975664;28;20152;-72
2021/06/01 06:32:51;;;;;;;11.48;6.10;;;;;;;-145.50;100.00;65435.88;4962067;28;20137;-73
2021/06/01 06:35:19;;;;;;;10.50;5.45;;;;;;;-145.50;100.00;65435.88;4968564;28;20053;-72
2021/06/01 06:37:46;;;;;;;10.25;5.05;;;;;;;-145.50;100.00;65435.88;4966956;28;20660;-72
2021/06/01 06:40:14;;;;;;;8.80;4.93;;;;;;;-145.50;100.00;65435.88;4961948;28;20529;-73
2021/06/01 06:42:41;;;;;;;11.60;5.45;;;;;;;-145.50;100.00;65435.88;4970011;28;20078;-72
2021/06/01 06:45:10;;;;;;;9.30;5.32;;;;;;;-145.50;100.00;65435.88;4950593;28;20062;-72
2021/06/01 06:50:16;;;;;;;9.63;5.38;;;;;;;-145.50;100.00;65435.88;4961792;28;20624;-71
2021/06/01 06:52:44;;;;;;;10.18;5.40;;;;;;;-145.50;100.00;65435.88;4971260;28;20050;-71
2021/06/01 06:55:12;;;;;;;12.18;5.28;;;;;;;-145.50;100.00;65435.88;4960644;28;20085;-71
2021/06/01 06:57:39;;;;;;;8.82;5.30;;;;;;;-145.50;100.00;65435.88;4974498;28;20086;-71
2021/06/01 07:00:08;;;;;;;9.75;5.82;;;;;;;-145.50;100.00;65435.88;4973501;28;20473;-72
2021/06/01 07:02:34;;;;;;;;;;;;;;;-145.50;100.00;65435.88;4964914;28;20078;-72
2021/06/01 07:05:02;;;;;;;6.65;4.53;;;;;;;-145.50;100.00;65435.88;4969651;28;20317;-72
2021/06/01 07:07:29;;;;;;;8.70;5.75;;;;;;;-145.50;100.00;65435.88;4967061;28;20110;-72
2021/06/01 07:09:56;;;;;;;8.80;5.70;;;;;;;-145.50;100.00;65435.88;4972957;28;20070;-72
2021/06/01 07:12:22;;;;;;;11.00;5.72;;;;;;;-145.50;100.00;65435.88;4969941;28;20112;-72
2021/06/01 07:14:52;;;;;;;9.88;5.50;;;;;;;-145.50;100.00;65435.88;4976247;28;20085;-72
2021/06/01 07:17:20;;;;;;;9.68;5.50;;;;;;;-145.50;100.00;65435.88;4965475;28;20133;-72
2021/06/01 07:19:50;;;;;;;8.43;5.90;;;;;;;-145.50;100.00;65435.88;4974975;28;20042;-72
2021/06/01 07:22:17;;;;;;;9.45;5.80;;;;;;;-145.50;100.00;65435.88;4974104;28;20479;-72
2021/06/01 07:24:43;;;;;;;8.25;5.40;;;;;;;-145.50;100.00;65435.88;4968422;28;20129;-72
2021/06/01 07:27:09;;;;;;;11.82;5.43;;;;;;;-145.50;100.00;65435.88;4976116;28;20169;-72
2021/06/01 07:29:36;;;;;;;8.43;5.63;;;;;;;-145.50;100.00;65435.88;4966927;28;20132;-72
2021/06/01 07:32:03;;;;;;;12.23;6.18;;;;;;;-145.50;100.00;65435.88;4950510;28;20135;-71
2021/06/01 07:34:30;;;;;;;11.13;5.60;;;;;;;-145.50;100.00;65435.88;4962944;28;20143;-72
2021/06/01 07:36:56;;;;;;;11.05;6.10;;;;;;;-145.50;100.00;65435.88;4975183;28;20509;-72
2021/06/01 07:39:23;;;;;;;11.07;5.55;;;;;;;-145.50;100.00;65435.88;4967683;28;20193;-72
2021/06/01 07:41:49;;;;;;;10.43;6.20;;;;;;;-145.50;100.00;65435.88;4973935;28;20556;-72
2021/06/01 07:44:16;;;;;;;11.48;5.88;;;;;;;-145.50;100.00;65435.88;4974606;28;20940;-72
2021/06/01 07:46:42;;;;;;;9.90;5.53;;;;;;;-145.50;100.00;65435.88;4958390;28;20082;-72
2021/06/01 07:49:10;;;;;;;13.82;5.82;;;;;;;-145.50;100.00;65435.88;4959765;28;20109;-72
2021/06/01 07:51:37;;;;;;;10.77;6.10;;;;;;;-145.50;100.00;65435.88;4968830;28;20058;-72
2021/06/01 07:54:05;;;;;;;9.50;5.25;;;;;;;-145.50;100.00;65435.88;4973224;28;20138;-72
2021/06/01 07:56:34;;;;;;;9.90;5.53;;;;;;;-145.50;100.00;65435.88;4966435;28;20148;-72
2021/06/01 07:59:01;;;;;;;9.43;5.88;;;;;;;-145.50;100.00;65435.88;4973993;28;20377;-72
2021/06/01 08:01:27;;;;;;;11.98;5.95;;;;;;;-145.50;100.00;65435.88;4970259;28;20162;-72
2021/06/01 08:03:54;;;;;;;11.57;6.25;;;;;;;-145.50;100.00;65435.88;4967230;28;20054;-72
2021/06/01 08:06:23;;;;;;;11.40;5.78;;;;;;;-145.50;100.00;65435.88;4958664;28;20085;-72
2021/06/01 08:08:50;;;;;;;7.50;5.28;;;;;;;-145.50;100.00;65435.88;4969275;28;20094;-72
2021/06/01 08:11:17;;;;;;;11.57;6.07;;;;;;;-145.50;100.00;65435.88;4976492;28;20562;-72
2021/06/01 08:13:44;;;;;;;10.60;5.97;;;;;;;-145.50;100.00;65435.88;4945461;28;20089;-72
2021/06/01 08:16:10;;;;;;;9.65;5.47;;;;;;;-145.50;100.00;65435.88;4971190;28;20495;-72
2021/06/01 08:18:42;;;;;;;13.07;6.43;;;;;;;-145.50;100.00;65435.88;4971949;28;20057;-72
2021/06/01 08:21:12;;;;;;;7.55;4.45;;;;;;;-145.50;100.00;65435.88;4975502;28;20102;-72
2021/06/01 08:23:40;;;;;;;8.13;4.57;;;;;;;-145.50;100.00;65435.88;4975262;28;20459;-72
2021/06/01 08:26:06;;;;;;;10.05;6.38;;;;;;;-145.50;100.00;65435.88;4967068;28;20875;-72
2021/06/01 08:28:33;;;;;;;13.60;6.68;;;;;;;-145.50;100.00;65435.88;4963359;28;20145;-72
2021/06/01 08:31:01;;;;;;;9.38;5.72;;;;;;;-145.50;100.00;65435.88;4965079;28;20449;-72
2021/06/01 08:33:28;;;;;;;8.95;5.43;;;;;;;-145.50;100.00;65435.88;4971265;28;20076;-71
2021/06/01 08:35:57;;;;;;;10.90;5.38;;;;;;;-145.50;100.00;65435.88;4950932;28;20058;-71
2021/06/01 08:38:23;;;;;;;10.32;5.50;;;;;;;-145.50;100.00;65435.88;4969430;28;20140;-72
2021/06/01 08:40:51;;;;;;;10.95;4.80;;;;;;;-145.50;100.00;65435.88;4966275;28;20236;-72
2021/06/01 08:43:22;;;;;;;8.80;5.70;;;;;;;-145.50;100.00;65435.88;4966266;28;20090;-72
2021/06/01 08:45:53;;;;;;;10.93;5.72;;;;;;;-145.50;100.00;65435.88;4972276;28;20537;-72
2021/06/01 08:48:21;;;;;;;11.40;5.68;;;;;;;-145.50;100.00;65435.88;4968404;28;20106;-72
2021/06/01 08:50:51;;;;;;;11.20;5.80;;;;;;;-145.50;100.00;65435.88;4976294;28;20089;-72
2021/06/01 08:53:18;;;;;;;9.77;5.50;;;;;;;-145.50;100.00;65435.88;4965952;28;21011;-72
2021/06/01 08:55:46;;;;;;;9.30;5.38;;;;;;;-145.50;100.00;65435.88;4970693;28;20144;-71
2021/06/01 08:58:15;;;;;;;13.40;4.97;;;;;;;-145.50;100.00;65435.88;4939309;28;20145;-71
2021/06/01 09:00:41;;;;;;;9.95;6.15;;;;;;;-145.50;100.00;65435.88;4976816;28;20106;-72
2021/06/01 09:03:15;;;;;;;10.70;6.43;;;;;;;-145.50;100.00;65435.88;4967497;28;20050;-71
2021/06/01 09:06:29;;;;;;;8.48;5.60;;;;;;;-145.50;100.00;65435.88;4957866;28;20129;-71
2021/06/01 09:22:34;;;;;;;10.18;4.78;;;;;;;-145.50;100.00;65435.88;4958617;28;20070;-71
2021/06/01 09:25:10;;;;;;;7.57;4.32;;;;;;;-145.50;100.00;65435.88;4957583;28;20056;-72
2021/06/01 09:27:47;;;;;;;7.07;4.68;;;;;;;-145.50;100.00;65435.88;4956984;28;20160;-71
2021/06/01 09:30:39;;;;;;;10.02;4.70;;;;;;;-145.50;100.00;65435.88;4975622;28;20549;-71
2021/06/01 09:33:25;;;;;;;6.50;4.10;;;;;;;-145.50;100.00;65435.88;4971625;28;20077;-72
2021/06/01 09:36:03;;;;;;;7.80;4.88;;;;;;;-145.50;100.00;65435.88;4970048;28;20147;-72
2021/06/01 09:38:35;;;;;;;8.98;4.35;;;;;;;-145.50;100.00;65435.88;4963444;28;20272;-71
2021/06/01 09:41:06;;;;;;;8.48;3.78;;;;;;;-145.50;100.00;65435.88;4973712;28;20146;-72
2021/06/01 09:43:47;;;;;;;9.68;4.13;;;;;;;-145.50;100.00;65435.88;4966208;28;20137;-71
2021/06/01 09:46:44;;;;;;;6.35;4.45;;;;;;;-145.50;100.00;65435.88;4972919;28;20134;-72
2021/06/01 09:49:14;;;;;;;8.60;4.05;;;;;;;-145.50;100.00;65435.88;4967232;28;20050;-72
2021/06/01 09:51:45;;;;;;;12.32;4.07;;;;;;;-145.50;100.00;65435.88;4954031;28;20077;-72
2021/06/01 09:54:34;;;;;;;8.88;4.10;;;;;;;-145.50;100.00;65435.88;4964992;28;20532;-72
2021/06/01 09:57:14;;;;;;;7.60;4.55;;;;;;;-145.50;100.00;65435.88;4972665;28;20050;-72
2021/06/01 09:59:41;;;;;;;7.13;3.95;;;;;;;-145.50;100.00;65435.88;4965147;28;20050;-72
2021/06/01 10:02:34;;;;;;;9.82;3.83;;;;;;;-145.50;100.00;65435.88;4972206;28;20085;-72
2021/06/01 10:05:19;;;;;;;8.85;3.20;;;;;;;-145.50;100.00;65435.88;4955898;28;20112;-71
2021/06/01 10:07:47;;;;;;;8.27;3.60;;;;;;;-145.50;100.00;65435.88;4964572;28;20212;-71
2021/06/01 10:10:29;;;;;;;8.65;3.67;;;;;;;-145.50;100.00;65435.88;4966538;28;20057;-72
2021/06/01 10:12:58;;;;;;;7.00;3.83;;;;;;;-145.50;100.00;65435.88;4972367;28;20078;-72
2021/06/01 10:15:28;;;;;;;5.70;3.50;;;;;;;-145.50;100.00;65435.88;4961441;28;20109;-72
2021/06/01 10:18:00;;;;;;;7.38;3.30;;;;;;;-145.50;100.00;65435.88;4974373;28;20054;-72
2021/06/01 10:20:29;;;;;;;5.65;3.40;;;;;;;-145.50;100.00;65435.88;4966301;28;20069;-72
2021/06/01 10:22:56;;;;;;;10.57;3.25;;;;;;;-145.50;100.00;65435.88;4974667;28;20145;-71
2021/06/01 10:25:22;;;;;;;9.95;3.65;;;;;;;-145.50;100.00;65435.88;4978001;28;20089;-72
2021/06/01 10:27:50;;;;;;;5.18;3.10;;;;;;;-145.50;100.00;65435.88;4965063;28;20481;-72
2021/06/01 10:30:18;;;;;;;6.57;3.38;;;;;;;-145.50;100.00;65435.88;4978628;28;20543;-72
2021/06/01 10:32:58;;;;;;;5.80;3.10;;;;;;;-145.50;100.00;65435.88;4964620;28;20149;-72
2021/06/01 10:35:29;;;;;;;5.57;2.80;;;;;;;-145.50;100.00;65435.88;4972031;28;20172;-72
2021/06/01 10:44:18;;;;;;;6.63;2.95;;;;;;;-145.50;100.00;65435.88;4963372;28;20164;-72
2021/06/01 10:52:12;;;;;;;10.43;3.38;;;;;;;-145.50;100.00;65435.88;4969174;28;20050;-71
2021/06/01 10:54:38;;;;;;;6.82;3.00;;;;;;;-145.50;100.00;65435.88;4970049;28;20129;-71
2021/06/01 10:57:06;;;;;;;5.15;3.20;;;;;;;-145.50;100.00;65435.88;4976668;28;20113;-71
2021/06/01 10:59:57;;;;;;;6.93;2.90;;;;;;;-145.50;100.00;65435.88;4969660;28;20129;-71
2021/06/01 11:02:25;;;;;;;5.30;3.30;;;;;;;-145.50;100.00;65435.88;4966238;28;20137;-72
2021/06/01 11:05:05;;;;;;;6.40;3.15;;;;;;;-145.50;100.00;65435.88;4971624;28;20136;-72
2021/06/01 11:07:54;;;;;;;6.55;3.20;;;;;;;-145.50;100.00;65435.88;4974436;28;20089;-72
2021/06/01 11:10:46;;;;;;;5.25;3.00;;;;;;;-145.50;100.00;65435.88;4966152;28;20145;-72
2021/06/01 11:13:18;;;;;;;5.13;3.08;;;;;;;-145.50;100.00;65435.88;4972324;28;20114;-72
2021/06/01 11:15:56;;;;;;;6.47;3.20;;;;;;;-145.50;100.00;65435.88;4963859;28;20478;-72
2021/06/01 11:18:35;;;;;;;5.25;2.90;;;;;;;-145.50;100.00;65435.88;4975786;28;20715;-71
2021/06/01 11:21:09;;;;;;;4.50;2.90;;;;;;;-145.50;100.00;65435.88;4976735;28;20138;-71
2021/06/01 11:24:08;;;;;;;6.18;3.28;;;;;;;-145.50;100.00;65435.88;4976354;28;20484;-72
2021/06/01 11:35:26;;;;;;;8.80;3.50;;;;;;;-145.50;100.00;65435.88;4974634;28;20453;-72
2021/06/01 11:43:14;;;;;;;4.63;3.22;;;;;;;-145.50;100.00;65435.88;4966463;28;20078;-72
2021/06/01 11:45:55;;;;;;;8.07;2.90;;;;;;;-145.50;100.00;65435.88;4970659;28;20155;-71
2021/06/01 11:51:15;;;;;;;7.10;3.13;;;;;;;-145.50;100.00;65435.88;4965538;28;20133;-72
2021/06/01 11:53:57;;;;;;;6.15;3.30;;;;;;;-145.50;100.00;65435.88;4977143;28;20086;-72
2021/06/01 11:56:48;;;;;;;5.28;3.45;;;;;;;-145.50;100.00;65435.88;4962570;28;20105;-72
2021/06/01 12:04:55;;;;;;;6.45;3.13;;;;;;;-145.50;100.00;65435.88;4977265;28;20057;-71
2021/06/01 12:20:53;;;;;;;11.02;2.85;;;;;;;-145.50;100.00;65435.88;4978467;28;20133;-71
2021/06/01 12:23:31;;;;;;;5.32;3.10;;;;;;;-145.50;100.00;65435.88;4966653;28;20062;-71
2021/06/01 12:26:14;;;;;;;4.03;3.17;;;;;;;-145.50;100.00;65435.88;4971182;28;20082;-71
2021/06/01 12:31:49;;;;;;;4.43;2.72;;;;;;;-145.50;100.00;65435.88;4968685;28;20110;-71
2021/06/01 12:34:22;;;;;;;5.25;2.97;;;;;;;-145.50;100.00;65435.88;4965927;28;20050;-71
2021/06/01 12:37:14;;;;;;;6.43;3.35;;;;;;;-145.50;100.00;65435.88;4967647;28;20113;-71